sensor_id;sensor_type;location;lat;lon;timestamp;temperature;humidity
33645;DHT22;19986;48.190;16.366;2023-12-20T00:02:20;5.40;99.90
33645;DHT22;19986;48.190;16.366;2023-12-20T00:04:46;5.30;99.90
33645;DHT22;19986;48.190;16.366;2023-12-20T00:07:11;5.30;99.90
33645;DHT22;19986;48.190;16.366;2023-12-20T00:09:37;5.30;99.90
33645;DHT22;19986;48.190;16.366;2023-12-20T00:12:03;5.30;99.90
33645;DHT22;19986;48.190;16.366;2023-12-20T00:14:29;5.30;99.90
33645;DHT22;19986;48.190;16.366;2023-12-20T00:16:55;5.30;99.90
33645;DHT22;19986;48.190;16.366;2023-12-20T00:19:21;5.30;99.90
33645;DHT22;19986;48.190;16.366;2023-12-20T00:21:46;5.40;99.90
33645;DHT22;19986;48.190;16.366;2023-12-20T00:24:12;5.30;99.90
33645;DHT22;19986;48.190;16.366;2023-12-20T00:26:38;5.30;99.90
33645;DHT22;19986;48.190;16.366;2023-12-20T00:29:04;5.20;99.90
33645;DHT22;19986;48.190;16.366;2023-12-20T00:31:30;5.20;99.90
33645;DHT22;19986;48.190;16.366;2023-12-20T00:33:55;5.20;99.90
33645;DHT22;19986;48.190;16.366;2023-12-20T00:36:22;5.10;99.90
33645;DHT22;19986;48.190;16.366;2023-12-20T00:38:48;5.00;99.90
33645;DHT22;19986;48.190;16.366;2023-12-20T00:41:13;5.00;99.90
33645;DHT22;19986;48.190;16.366;2023-12-20T00:43:39;5.00;99.90
33645;DHT22;19986;48.190;16.366;2023-12-20T00:46:05;5.00;99.90
33645;DHT22;19986;48.190;16.366;2023-12-20T00:48:31;5.00;99.90
33645;DHT22;19986;48.190;16.366;2023-12-20T00:50:57;5.10;99.90
33645;DHT22;19986;48.190;16.366;2023-12-20T00:53:23;5.10;99.90
33645;DHT22;19986;48.190;16.366;2023-12-20T00:55:49;5.10;99.90
33645;DHT22;19986;48.190;16.366;2023-12-20T00:58:15;5.10;99.90
33645;DHT22;19986;48.190;16.366;2023-12-20T01:00:41;5.10;99.90
33645;DHT22;19986;48.190;16.366;2023-12-20T01:03:08;5.10;99.90
33645;DHT22;19986;48.190;16.366;2023-12-20T01:05:34;5.20;99.90
33645;DHT22;19986;48.190;16.366;2023-12-20T01:08:00;5.20;99.90
33645;DHT22;19986;48.190;16.366;2023-12-20T01:10:28;5.30;99.90
33645;DHT22;19986;48.190;16.366;2023-12-20T01:12:55;5.30;99.90
33645;DHT22;19986;48.190;16.366;2023-12-20T01:15:21;5.30;99.90
33645;DHT22;19986;48.190;16.366;2023-12-20T01:17:47;5.30;99.90
33645;DHT22;19986;48.190;16.366;2023-12-20T01:20:15;5.30;99.90
33645;DHT22;19986;48.190;16.366;2023-12-20T01:22:40;5.30;99.90
33645;DHT22;19986;48.190;16.366;2023-12-20T01:25:08;5.30;99.90
33645;DHT22;19986;48.190;16.366;2023-12-20T01:27:34;5.30;99.90
33645;DHT22;19986;48.190;16.366;2023-12-20T01:30:00;5.30;99.90
33645;DHT22;19986;48.190;16.366;2023-12-20T01:32:26;5.30;99.90
33645;DHT22;19986;48.190;16.366;2023-12-20T01:34:52;5.30;99.90
33645;DHT22;19986;48.190;16.366;2023-12-20T01:37:18;5.30;99.90
33645;DHT22;19986;48.190;16.366;2023-12-20T01:39:43;5.20;99.90
33645;DHT22;19986;48.190;16.366;2023-12-20T01:42:09;5.20;99.90
33645;DHT22;19986;48.190;16.366;2023-12-20T01:44:35;5.10;99.90
33645;DHT22;19986;48.190;16.366;2023-12-20T01:47:02;5.10;99.90
33645;DHT22;19986;48.190;16.366;2023-12-20T01:49:28;5.10;99.90
33645;DHT22;19986;48.190;16.366;2023-12-20T01:51:54;5.00;99.90
33645;DHT22;19986;48.190;16.366;2023-12-20T01:54:21;5.00;99.90
33645;DHT22;19986;48.190;16.366;2023-12-20T01:56:49;4.90;99.90
33645;DHT22;19986;48.190;16.366;2023-12-20T01:59:18;4.90;99.90
33645;DHT22;19986;48.190;16.366;2023-12-20T02:01:46;4.90;99.90
33645;DHT22;19986;48.190;16.366;2023-12-20T02:04:13;4.90;99.90
33645;DHT22;19986;48.190;16.366;2023-12-20T02:06:40;4.70;99.90
33645;DHT22;19986;48.190;16.366;2023-12-20T02:09:07;4.70;99.90
33645;DHT22;19986;48.190;16.366;2023-12-20T02:11:33;4.60;99.90
33645;DHT22;19986;48.190;16.366;2023-12-20T02:14:01;4.60;99.90
33645;DHT22;19986;48.190;16.366;2023-12-20T02:16:28;4.60;99.90
33645;DHT22;19986;48.190;16.366;2023-12-20T02:18:54;4.50;99.90
33645;DHT22;19986;48.190;16.366;2023-12-20T02:21:25;4.50;99.90
33645;DHT22;19986;48.190;16.366;2023-12-20T02:23:51;4.50;99.90
33645;DHT22;19986;48.190;16.366;2023-12-20T02:26:18;4.50;99.90
33645;DHT22;19986;48.190;16.366;2023-12-20T02:28:45;4.50;99.90
33645;DHT22;19986;48.190;16.366;2023-12-20T02:31:11;4.60;99.90
33645;DHT22;19986;48.190;16.366;2023-12-20T02:33:37;4.60;99.90
33645;DHT22;19986;48.190;16.366;2023-12-20T02:36:06;4.70;99.90
33645;DHT22;19986;48.190;16.366;2023-12-20T02:38:33;4.70;99.90
33645;DHT22;19986;48.190;16.366;2023-12-20T02:40:59;4.70;99.90
33645;DHT22;19986;48.190;16.366;2023-12-20T02:43:26;4.60;99.90
33645;DHT22;19986;48.190;16.366;2023-12-20T02:45:52;4.60;99.90
33645;DHT22;19986;48.190;16.366;2023-12-20T02:48:18;4.70;99.90
33645;DHT22;19986;48.190;16.366;2023-12-20T02:50:46;4.70;99.90
33645;DHT22;19986;48.190;16.366;2023-12-20T02:53:12;4.70;99.90
33645;DHT22;19986;48.190;16.366;2023-12-20T02:55:38;4.80;99.90
33645;DHT22;19986;48.190;16.366;2023-12-20T02:58:04;4.90;99.90
33645;DHT22;19986;48.190;16.366;2023-12-20T03:00:31;5.00;99.90
33645;DHT22;19986;48.190;16.366;2023-12-20T03:02:57;5.10;99.90
33645;DHT22;19986;48.190;16.366;2023-12-20T03:05:24;5.10;99.90
33645;DHT22;19986;48.190;16.366;2023-12-20T03:07:50;5.30;99.90
33645;DHT22;19986;48.190;16.366;2023-12-20T03:10:16;5.40;99.90
33645;DHT22;19986;48.190;16.366;2023-12-20T03:12:42;5.50;99.90
33645;DHT22;19986;48.190;16.366;2023-12-20T03:15:08;5.60;99.90
33645;DHT22;19986;48.190;16.366;2023-12-20T03:17:34;5.80;99.90
33645;DHT22;19986;48.190;16.366;2023-12-20T03:20:00;5.80;99.90
33645;DHT22;19986;48.190;16.366;2023-12-20T03:22:26;5.90;99.90
33645;DHT22;19986;48.190;16.366;2023-12-20T03:24:51;6.00;99.90
33645;DHT22;19986;48.190;16.366;2023-12-20T03:27:17;6.00;99.90
33645;DHT22;19986;48.190;16.366;2023-12-20T03:29:43;6.10;99.90
33645;DHT22;19986;48.190;16.366;2023-12-20T03:32:09;6.10;99.90
33645;DHT22;19986;48.190;16.366;2023-12-20T03:34:35;6.20;99.90
33645;DHT22;19986;48.190;16.366;2023-12-20T03:37:01;6.30;99.90
33645;DHT22;19986;48.190;16.366;2023-12-20T03:39:27;6.30;99.90
33645;DHT22;19986;48.190;16.366;2023-12-20T03:41:52;6.30;99.90
33645;DHT22;19986;48.190;16.366;2023-12-20T03:44:18;6.30;99.90
33645;DHT22;19986;48.190;16.366;2023-12-20T03:46:44;6.30;99.90
33645;DHT22;19986;48.190;16.366;2023-12-20T03:49:11;6.40;99.90
33645;DHT22;19986;48.190;16.366;2023-12-20T03:51:37;6.50;99.90
33645;DHT22;19986;48.190;16.366;2023-12-20T03:54:05;6.50;99.90
33645;DHT22;19986;48.190;16.366;2023-12-20T03:56:31;6.50;99.90
33645;DHT22;19986;48.190;16.366;2023-12-20T03:59:01;6.60;99.90
33645;DHT22;19986;48.190;16.366;2023-12-20T04:01:27;6.60;99.90
33645;DHT22;19986;48.190;16.366;2023-12-20T04:03:53;6.60;99.90
33645;DHT22;19986;48.190;16.366;2023-12-20T04:06:19;6.60;99.90
33645;DHT22;19986;48.190;16.366;2023-12-20T04:08:45;6.70;99.90
33645;DHT22;19986;48.190;16.366;2023-12-20T04:11:14;6.70;99.90
33645;DHT22;19986;48.190;16.366;2023-12-20T04:13:39;6.60;99.90
33645;DHT22;19986;48.190;16.366;2023-12-20T04:16:05;6.60;99.90
33645;DHT22;19986;48.190;16.366;2023-12-20T04:18:31;6.50;99.90
33645;DHT22;19986;48.190;16.366;2023-12-20T04:20:58;6.50;99.90
33645;DHT22;19986;48.190;16.366;2023-12-20T04:23:24;6.40;99.90
33645;DHT22;19986;48.190;16.366;2023-12-20T04:25:49;6.40;99.90
33645;DHT22;19986;48.190;16.366;2023-12-20T04:28:16;6.30;99.90
33645;DHT22;19986;48.190;16.366;2023-12-20T04:30:43;6.30;99.90
33645;DHT22;19986;48.190;16.366;2023-12-20T04:33:08;6.30;99.90
33645;DHT22;19986;48.190;16.366;2023-12-20T04:35:37;6.30;99.90
33645;DHT22;19986;48.190;16.366;2023-12-20T04:38:03;6.20;99.90
33645;DHT22;19986;48.190;16.366;2023-12-20T04:40:29;6.20;99.90
33645;DHT22;19986;48.190;16.366;2023-12-20T04:42:55;6.10;99.90
33645;DHT22;19986;48.190;16.366;2023-12-20T04:45:21;6.20;99.90
33645;DHT22;19986;48.190;16.366;2023-12-20T04:47:47;6.20;99.90
33645;DHT22;19986;48.190;16.366;2023-12-20T04:50:13;6.10;99.90
33645;DHT22;19986;48.190;16.366;2023-12-20T04:52:40;6.10;99.90
33645;DHT22;19986;48.190;16.366;2023-12-20T04:55:07;6.20;99.90
33645;DHT22;19986;48.190;16.366;2023-12-20T04:57:34;6.20;99.90
33645;DHT22;19986;48.190;16.366;2023-12-20T05:00:00;6.30;99.90
33645;DHT22;19986;48.190;16.366;2023-12-20T05:02:26;6.30;99.90
33645;DHT22;19986;48.190;16.366;2023-12-20T05:04:51;6.40;99.90
33645;DHT22;19986;48.190;16.366;2023-12-20T05:07:17;6.40;99.90
33645;DHT22;19986;48.190;16.366;2023-12-20T05:09:43;6.40;99.90
33645;DHT22;19986;48.190;16.366;2023-12-20T05:12:09;6.40;99.90
33645;DHT22;19986;48.190;16.366;2023-12-20T05:14:34;6.60;99.90
33645;DHT22;19986;48.190;16.366;2023-12-20T05:17:00;6.70;99.90
33645;DHT22;19986;48.190;16.366;2023-12-20T05:19:26;6.80;99.90
33645;DHT22;19986;48.190;16.366;2023-12-20T05:21:52;7.00;99.90
33645;DHT22;19986;48.190;16.366;2023-12-20T05:24:18;7.10;99.90
33645;DHT22;19986;48.190;16.366;2023-12-20T05:26:43;7.30;99.90
33645;DHT22;19986;48.190;16.366;2023-12-20T05:29:09;7.50;99.90
33645;DHT22;19986;48.190;16.366;2023-12-20T05:31:38;7.60;99.90
33645;DHT22;19986;48.190;16.366;2023-12-20T05:34:04;7.70;99.90
33645;DHT22;19986;48.190;16.366;2023-12-20T05:36:29;7.90;99.90
33645;DHT22;19986;48.190;16.366;2023-12-20T05:38:55;7.90;99.90
33645;DHT22;19986;48.190;16.366;2023-12-20T05:41:21;8.00;99.90
33645;DHT22;19986;48.190;16.366;2023-12-20T05:43:47;8.10;99.90
33645;DHT22;19986;48.190;16.366;2023-12-20T05:46:13;8.10;99.90
33645;DHT22;19986;48.190;16.366;2023-12-20T05:48:39;8.20;99.90
33645;DHT22;19986;48.190;16.366;2023-12-20T05:51:05;8.30;99.90
33645;DHT22;19986;48.190;16.366;2023-12-20T05:53:31;8.40;99.90
33645;DHT22;19986;48.190;16.366;2023-12-20T05:55:56;8.40;99.90
33645;DHT22;19986;48.190;16.366;2023-12-20T05:58:22;8.50;99.90
33645;DHT22;19986;48.190;16.366;2023-12-20T06:00:48;8.60;99.90
33645;DHT22;19986;48.190;16.366;2023-12-20T06:03:14;8.60;99.90
33645;DHT22;19986;48.190;16.366;2023-12-20T06:05:41;8.70;99.90
33645;DHT22;19986;48.190;16.366;2023-12-20T06:08:07;8.90;99.90
33645;DHT22;19986;48.190;16.366;2023-12-20T06:10:33;9.00;99.90
33645;DHT22;19986;48.190;16.366;2023-12-20T06:12:59;9.20;99.90
33645;DHT22;19986;48.190;16.366;2023-12-20T06:15:26;9.30;99.90
33645;DHT22;19986;48.190;16.366;2023-12-20T06:17:52;9.40;99.90
33645;DHT22;19986;48.190;16.366;2023-12-20T06:20:18;9.60;99.90
33645;DHT22;19986;48.190;16.366;2023-12-20T06:22:43;9.70;99.90
33645;DHT22;19986;48.190;16.366;2023-12-20T06:25:09;9.70;99.90
33645;DHT22;19986;48.190;16.366;2023-12-20T06:27:35;9.90;99.90
33645;DHT22;19986;48.190;16.366;2023-12-20T06:30:01;10.00;99.90
33645;DHT22;19986;48.190;16.366;2023-12-20T06:32:27;10.00;99.90
33645;DHT22;19986;48.190;16.366;2023-12-20T06:34:54;10.00;99.90
33645;DHT22;19986;48.190;16.366;2023-12-20T06:37:20;10.10;99.90
33645;DHT22;19986;48.190;16.366;2023-12-20T06:39:46;10.10;99.90
33645;DHT22;19986;48.190;16.366;2023-12-20T06:42:13;10.20;99.90
33645;DHT22;19986;48.190;16.366;2023-12-20T06:44:39;10.20;99.90
33645;DHT22;19986;48.190;16.366;2023-12-20T06:47:05;10.20;99.90
33645;DHT22;19986;48.190;16.366;2023-12-20T06:49:31;10.20;99.90
33645;DHT22;19986;48.190;16.366;2023-12-20T06:51:57;10.30;99.90
33645;DHT22;19986;48.190;16.366;2023-12-20T06:54:23;10.30;99.90
33645;DHT22;19986;48.190;16.366;2023-12-20T06:56:48;10.30;99.90
33645;DHT22;19986;48.190;16.366;2023-12-20T06:59:15;10.30;99.90
33645;DHT22;19986;48.190;16.366;2023-12-20T07:01:41;10.40;99.90
33645;DHT22;19986;48.190;16.366;2023-12-20T07:04:08;10.40;99.90
33645;DHT22;19986;48.190;16.366;2023-12-20T07:06:33;10.40;99.90
33645;DHT22;19986;48.190;16.366;2023-12-20T07:08:59;10.50;99.90
33645;DHT22;19986;48.190;16.366;2023-12-20T07:11:25;10.60;99.90
33645;DHT22;19986;48.190;16.366;2023-12-20T07:13:51;10.60;99.90
33645;DHT22;19986;48.190;16.366;2023-12-20T07:16:17;10.70;99.90
33645;DHT22;19986;48.190;16.366;2023-12-20T07:18:43;10.90;99.90
33645;DHT22;19986;48.190;16.366;2023-12-20T07:21:09;10.90;99.90
33645;DHT22;19986;48.190;16.366;2023-12-20T07:23:35;10.90;99.90
33645;DHT22;19986;48.190;16.366;2023-12-20T07:26:01;10.90;99.90
33645;DHT22;19986;48.190;16.366;2023-12-20T07:28:27;11.00;99.90
33645;DHT22;19986;48.190;16.366;2023-12-20T07:30:52;11.00;99.90
33645;DHT22;19986;48.190;16.366;2023-12-20T07:33:18;11.00;99.90
33645;DHT22;19986;48.190;16.366;2023-12-20T07:35:44;11.00;99.90
33645;DHT22;19986;48.190;16.366;2023-12-20T07:38:11;10.90;99.90
33645;DHT22;19986;48.190;16.366;2023-12-20T07:40:37;11.00;99.90
33645;DHT22;19986;48.190;16.366;2023-12-20T07:43:04;10.90;99.90
33645;DHT22;19986;48.190;16.366;2023-12-20T07:45:30;10.80;99.90
33645;DHT22;19986;48.190;16.366;2023-12-20T07:47:56;10.70;99.90
33645;DHT22;19986;48.190;16.366;2023-12-20T07:50:22;10.70;99.90
33645;DHT22;19986;48.190;16.366;2023-12-20T07:52:48;10.60;99.90
33645;DHT22;19986;48.190;16.366;2023-12-20T07:55:13;10.70;99.90
33645;DHT22;19986;48.190;16.366;2023-12-20T07:57:39;10.60;99.90
33645;DHT22;19986;48.190;16.366;2023-12-20T08:00:06;10.70;99.90
33645;DHT22;19986;48.190;16.366;2023-12-20T08:02:32;10.70;99.90
33645;DHT22;19986;48.190;16.366;2023-12-20T08:04:57;10.70;99.90
33645;DHT22;19986;48.190;16.366;2023-12-20T08:07:23;10.70;99.90
33645;DHT22;19986;48.190;16.366;2023-12-20T08:09:49;10.60;99.90
33645;DHT22;19986;48.190;16.366;2023-12-20T08:12:17;10.50;99.90
33645;DHT22;19986;48.190;16.366;2023-12-20T08:14:42;10.50;99.90
33645;DHT22;19986;48.190;16.366;2023-12-20T08:17:08;10.50;99.90
33645;DHT22;19986;48.190;16.366;2023-12-20T08:19:34;10.40;99.90
33645;DHT22;19986;48.190;16.366;2023-12-20T08:22:00;10.40;99.90
33645;DHT22;19986;48.190;16.366;2023-12-20T08:24:26;10.40;99.90
33645;DHT22;19986;48.190;16.366;2023-12-20T08:26:51;10.40;99.90
33645;DHT22;19986;48.190;16.366;2023-12-20T08:29:18;10.40;99.90
33645;DHT22;19986;48.190;16.366;2023-12-20T08:31:44;10.40;99.90
33645;DHT22;19986;48.190;16.366;2023-12-20T08:34:10;10.30;99.90
33645;DHT22;19986;48.190;16.366;2023-12-20T08:36:38;10.30;99.90
33645;DHT22;19986;48.190;16.366;2023-12-20T08:39:04;10.30;99.90
33645;DHT22;19986;48.190;16.366;2023-12-20T08:41:33;10.30;99.90
33645;DHT22;19986;48.190;16.366;2023-12-20T08:43:58;10.40;99.90
33645;DHT22;19986;48.190;16.366;2023-12-20T08:46:25;10.40;99.90
33645;DHT22;19986;48.190;16.366;2023-12-20T08:48:51;10.50;99.90
33645;DHT22;19986;48.190;16.366;2023-12-20T08:51:17;10.50;99.90
33645;DHT22;19986;48.190;16.366;2023-12-20T08:53:43;10.40;99.90
33645;DHT22;19986;48.190;16.366;2023-12-20T08:56:10;10.50;99.90
33645;DHT22;19986;48.190;16.366;2023-12-20T08:58:37;10.40;99.90
33645;DHT22;19986;48.190;16.366;2023-12-20T09:01:03;10.40;99.90
33645;DHT22;19986;48.190;16.366;2023-12-20T09:03:29;10.40;99.90
33645;DHT22;19986;48.190;16.366;2023-12-20T09:05:54;10.30;99.90
33645;DHT22;19986;48.190;16.366;2023-12-20T09:08:20;10.40;99.90
33645;DHT22;19986;48.190;16.366;2023-12-20T09:10:47;10.40;99.90
33645;DHT22;19986;48.190;16.366;2023-12-20T09:13:13;10.40;99.90
33645;DHT22;19986;48.190;16.366;2023-12-20T09:15:38;10.40;99.90
33645;DHT22;19986;48.190;16.366;2023-12-20T09:18:04;10.30;99.90
33645;DHT22;19986;48.190;16.366;2023-12-20T09:20:30;10.30;99.90
33645;DHT22;19986;48.190;16.366;2023-12-20T09:22:59;10.40;99.90
33645;DHT22;19986;48.190;16.366;2023-12-20T09:25:25;10.40;99.90
33645;DHT22;19986;48.190;16.366;2023-12-20T09:27:52;10.40;99.90
33645;DHT22;19986;48.190;16.366;2023-12-20T09:30:18;10.30;99.90
33645;DHT22;19986;48.190;16.366;2023-12-20T09:32:45;10.20;99.90
33645;DHT22;19986;48.190;16.366;2023-12-20T09:35:11;10.20;99.90
33645;DHT22;19986;48.190;16.366;2023-12-20T09:37:37;10.20;99.90
33645;DHT22;19986;48.190;16.366;2023-12-20T09:40:03;10.30;99.90
33645;DHT22;19986;48.190;16.366;2023-12-20T09:42:47;10.30;99.90
33645;DHT22;19986;48.190;16.366;2023-12-20T09:45:15;10.20;99.90
33645;DHT22;19986;48.190;16.366;2023-12-20T09:47:43;10.10;99.90
33645;DHT22;19986;48.190;16.366;2023-12-20T09:50:09;10.10;99.90
33645;DHT22;19986;48.190;16.366;2023-12-20T09:52:36;9.90;99.90
33645;DHT22;19986;48.190;16.366;2023-12-20T09:55:04;9.90;99.90
33645;DHT22;19986;48.190;16.366;2023-12-20T09:57:33;9.80;99.90
33645;DHT22;19986;48.190;16.366;2023-12-20T09:59:59;9.70;99.90
33645;DHT22;19986;48.190;16.366;2023-12-20T10:02:26;9.70;99.90
33645;DHT22;19986;48.190;16.366;2023-12-20T10:04:54;9.60;99.90
33645;DHT22;19986;48.190;16.366;2023-12-20T10:07:20;9.60;99.90
33645;DHT22;19986;48.190;16.366;2023-12-20T10:09:51;9.50;99.90
33645;DHT22;19986;48.190;16.366;2023-12-20T10:12:18;9.40;99.90
33645;DHT22;19986;48.190;16.366;2023-12-20T10:14:44;9.40;99.90
33645;DHT22;19986;48.190;16.366;2023-12-20T10:17:10;9.40;99.90
33645;DHT22;19986;48.190;16.366;2023-12-20T10:19:37;9.30;99.90
33645;DHT22;19986;48.190;16.366;2023-12-20T10:22:06;9.30;99.90
33645;DHT22;19986;48.190;16.366;2023-12-20T10:24:32;9.30;99.90
33645;DHT22;19986;48.190;16.366;2023-12-20T10:27:03;9.30;99.90
33645;DHT22;19986;48.190;16.366;2023-12-20T10:29:36;9.40;99.90
33645;DHT22;19986;48.190;16.366;2023-12-20T10:32:22;9.50;99.90
33645;DHT22;19986;48.190;16.366;2023-12-20T10:34:50;9.50;99.90
33645;DHT22;19986;48.190;16.366;2023-12-20T10:37:16;9.50;99.90
33645;DHT22;19986;48.190;16.366;2023-12-20T10:39:43;9.50;99.90
33645;DHT22;19986;48.190;16.366;2023-12-20T10:42:11;9.60;99.90
33645;DHT22;19986;48.190;16.366;2023-12-20T10:44:37;9.50;99.90
33645;DHT22;19986;48.190;16.366;2023-12-20T10:47:04;9.60;99.90
33645;DHT22;19986;48.190;16.366;2023-12-20T10:49:31;9.60;99.90
33645;DHT22;19986;48.190;16.366;2023-12-20T10:51:59;9.60;99.90
33645;DHT22;19986;48.190;16.366;2023-12-20T10:54:27;9.60;99.90
33645;DHT22;19986;48.190;16.366;2023-12-20T10:56:54;9.60;99.90
33645;DHT22;19986;48.190;16.366;2023-12-20T10:59:24;9.60;99.90
33645;DHT22;19986;48.190;16.366;2023-12-20T11:01:53;9.60;99.90
33645;DHT22;19986;48.190;16.366;2023-12-20T11:04:28;9.70;99.90
33645;DHT22;19986;48.190;16.366;2023-12-20T11:10:14;9.80;99.90
33645;DHT22;19986;48.190;16.366;2023-12-20T11:12:59;9.80;99.90
33645;DHT22;19986;48.190;16.366;2023-12-20T11:15:26;9.90;99.90
33645;DHT22;19986;48.190;16.366;2023-12-20T11:17:57;9.90;99.90
33645;DHT22;19986;48.190;16.366;2023-12-20T11:20:23;9.90;99.90
33645;DHT22;19986;48.190;16.366;2023-12-20T11:22:56;9.90;99.90
33645;DHT22;19986;48.190;16.366;2023-12-20T11:25:21;9.90;99.90
33645;DHT22;19986;48.190;16.366;2023-12-20T11:28:07;9.90;99.90
33645;DHT22;19986;48.190;16.366;2023-12-20T11:30:48;9.90;99.90
33645;DHT22;19986;48.190;16.366;2023-12-20T11:33:15;9.90;99.90
33645;DHT22;19986;48.190;16.366;2023-12-20T11:35:44;9.90;99.90
33645;DHT22;19986;48.190;16.366;2023-12-20T11:38:12;10.00;99.90
33645;DHT22;19986;48.190;16.366;2023-12-20T11:40:38;10.00;99.90
33645;DHT22;19986;48.190;16.366;2023-12-20T11:43:06;10.00;99.90
33645;DHT22;19986;48.190;16.366;2023-12-20T11:45:32;10.00;99.90
33645;DHT22;19986;48.190;16.366;2023-12-20T11:47:58;10.00;99.90
33645;DHT22;19986;48.190;16.366;2023-12-20T11:50:25;10.00;99.90
33645;DHT22;19986;48.190;16.366;2023-12-20T11:52:52;10.20;99.90
33645;DHT22;19986;48.190;16.366;2023-12-20T11:55:18;10.20;99.90
33645;DHT22;19986;48.190;16.366;2023-12-20T11:57:44;10.30;99.90
33645;DHT22;19986;48.190;16.366;2023-12-20T12:00:11;10.20;99.90
33645;DHT22;19986;48.190;16.366;2023-12-20T12:02:37;10.30;99.90
33645;DHT22;19986;48.190;16.366;2023-12-20T12:05:02;10.20;99.90
33645;DHT22;19986;48.190;16.366;2023-12-20T12:07:33;10.30;99.90
33645;DHT22;19986;48.190;16.366;2023-12-20T12:09:59;10.50;99.90
33645;DHT22;19986;48.190;16.366;2023-12-20T12:12:25;10.50;99.90
33645;DHT22;19986;48.190;16.366;2023-12-20T12:14:53;10.50;99.90
33645;DHT22;19986;48.190;16.366;2023-12-20T12:17:20;10.60;99.90
33645;DHT22;19986;48.190;16.366;2023-12-20T12:19:45;10.60;99.90
33645;DHT22;19986;48.190;16.366;2023-12-20T12:22:14;10.60;99.90
33645;DHT22;19986;48.190;16.366;2023-12-20T12:27:08;10.70;99.90
33645;DHT22;19986;48.190;16.366;2023-12-20T12:29:37;10.90;99.90
33645;DHT22;19986;48.190;16.366;2023-12-20T12:32:07;11.00;99.90
33645;DHT22;19986;48.190;16.366;2023-12-20T12:34:37;11.00;99.90
33645;DHT22;19986;48.190;16.366;2023-12-20T12:37:04;10.90;99.90
33645;DHT22;19986;48.190;16.366;2023-12-20T12:39:30;10.80;99.90
33645;DHT22;19986;48.190;16.366;2023-12-20T12:41:56;10.90;99.90
33645;DHT22;19986;48.190;16.366;2023-12-20T12:44:23;10.90;99.90
33645;DHT22;19986;48.190;16.366;2023-12-20T12:46:52;10.90;99.90
33645;DHT22;19986;48.190;16.366;2023-12-20T12:49:20;10.90;99.90
33645;DHT22;19986;48.190;16.366;2023-12-20T12:51:49;10.90;99.90
33645;DHT22;19986;48.190;16.366;2023-12-20T12:54:14;10.80;99.90
33645;DHT22;19986;48.190;16.366;2023-12-20T12:56:43;10.80;99.90
33645;DHT22;19986;48.190;16.366;2023-12-20T12:59:09;10.80;99.90
33645;DHT22;19986;48.190;16.366;2023-12-20T13:01:35;10.80;99.90
33645;DHT22;19986;48.190;16.366;2023-12-20T13:04:01;10.80;99.90
33645;DHT22;19986;48.190;16.366;2023-12-20T13:06:32;10.70;99.90
33645;DHT22;19986;48.190;16.366;2023-12-20T13:08:58;10.60;99.90
33645;DHT22;19986;48.190;16.366;2023-12-20T13:11:24;10.60;99.90
33645;DHT22;19986;48.190;16.366;2023-12-20T13:13:50;10.60;99.90
33645;DHT22;19986;48.190;16.366;2023-12-20T13:16:16;10.60;99.90
33645;DHT22;19986;48.190;16.366;2023-12-20T13:18:42;10.70;99.90
33645;DHT22;19986;48.190;16.366;2023-12-20T13:21:08;10.70;99.90
33645;DHT22;19986;48.190;16.366;2023-12-20T13:23:35;10.70;99.90
33645;DHT22;19986;48.190;16.366;2023-12-20T13:26:01;10.70;99.90
33645;DHT22;19986;48.190;16.366;2023-12-20T13:28:27;10.70;99.90
33645;DHT22;19986;48.190;16.366;2023-12-20T13:30:53;10.70;99.90
33645;DHT22;19986;48.190;16.366;2023-12-20T13:33:19;10.70;99.90
33645;DHT22;19986;48.190;16.366;2023-12-20T13:35:45;10.70;99.90
33645;DHT22;19986;48.190;16.366;2023-12-20T13:38:12;10.60;99.90
33645;DHT22;19986;48.190;16.366;2023-12-20T13:40:38;10.60;99.90
33645;DHT22;19986;48.190;16.366;2023-12-20T13:43:04;10.60;99.90
33645;DHT22;19986;48.190;16.366;2023-12-20T13:45:30;10.60;99.90
33645;DHT22;19986;48.190;16.366;2023-12-20T13:47:56;10.60;99.90
33645;DHT22;19986;48.190;16.366;2023-12-20T13:50:22;10.60;99.90
33645;DHT22;19986;48.190;16.366;2023-12-20T13:52:48;10.50;99.90
33645;DHT22;19986;48.190;16.366;2023-12-20T13:55:14;10.40;99.90
33645;DHT22;19986;48.190;16.366;2023-12-20T13:57:39;10.30;99.90
33645;DHT22;19986;48.190;16.366;2023-12-20T14:00:07;10.40;99.90
33645;DHT22;19986;48.190;16.366;2023-12-20T14:02:41;10.30;99.90
33645;DHT22;19986;48.190;16.366;2023-12-20T14:05:08;10.30;99.90
33645;DHT22;19986;48.190;16.366;2023-12-20T14:07:35;10.30;99.90
33645;DHT22;19986;48.190;16.366;2023-12-20T14:10:01;10.20;99.90
33645;DHT22;19986;48.190;16.366;2023-12-20T14:12:27;10.10;99.90
33645;DHT22;19986;48.190;16.366;2023-12-20T14:14:52;10.10;99.90
33645;DHT22;19986;48.190;16.366;2023-12-20T14:17:22;10.20;99.90
33645;DHT22;19986;48.190;16.366;2023-12-20T14:19:47;10.20;99.90
33645;DHT22;19986;48.190;16.366;2023-12-20T14:22:13;10.20;99.90
33645;DHT22;19986;48.190;16.366;2023-12-20T14:24:42;10.20;99.90
33645;DHT22;19986;48.190;16.366;2023-12-20T14:27:08;10.10;99.90
33645;DHT22;19986;48.190;16.366;2023-12-20T14:29:35;10.10;99.90
33645;DHT22;19986;48.190;16.366;2023-12-20T14:32:01;10.00;99.90
33645;DHT22;19986;48.190;16.366;2023-12-20T14:34:29;10.00;99.90
33645;DHT22;19986;48.190;16.366;2023-12-20T14:36:55;10.00;99.90
33645;DHT22;19986;48.190;16.366;2023-12-20T14:39:21;10.00;99.90
33645;DHT22;19986;48.190;16.366;2023-12-20T14:41:48;10.00;99.90
33645;DHT22;19986;48.190;16.366;2023-12-20T14:44:14;10.00;99.90
33645;DHT22;19986;48.190;16.366;2023-12-20T14:46:40;10.00;99.90
33645;DHT22;19986;48.190;16.366;2023-12-20T14:49:05;10.00;99.90
33645;DHT22;19986;48.190;16.366;2023-12-20T14:51:31;10.10;99.90
33645;DHT22;19986;48.190;16.366;2023-12-20T14:53:57;10.10;99.90
33645;DHT22;19986;48.190;16.366;2023-12-20T14:56:24;10.00;99.90
33645;DHT22;19986;48.190;16.366;2023-12-20T14:58:51;10.00;99.90
33645;DHT22;19986;48.190;16.366;2023-12-20T15:01:17;10.00;99.90
33645;DHT22;19986;48.190;16.366;2023-12-20T15:03:47;10.00;99.90
33645;DHT22;19986;48.190;16.366;2023-12-20T15:06:13;10.00;99.90
33645;DHT22;19986;48.190;16.366;2023-12-20T15:08:39;10.10;99.90
33645;DHT22;19986;48.190;16.366;2023-12-20T15:11:05;10.10;99.90
33645;DHT22;19986;48.190;16.366;2023-12-20T15:13:31;10.00;99.90
33645;DHT22;19986;48.190;16.366;2023-12-20T15:15:57;10.10;99.90
33645;DHT22;19986;48.190;16.366;2023-12-20T15:18:23;10.10;99.90
33645;DHT22;19986;48.190;16.366;2023-12-20T15:20:48;10.00;99.90
33645;DHT22;19986;48.190;16.366;2023-12-20T15:23:14;10.00;99.90
33645;DHT22;19986;48.190;16.366;2023-12-20T15:25:40;10.00;99.90
33645;DHT22;19986;48.190;16.366;2023-12-20T15:28:06;10.00;99.90